createdAt,value
2018-11-13T00:00:28.529Z,9.69
2018-11-13T00:02:58.286Z,9.62
2018-11-13T00:05:27.242Z,9.61
2018-11-13T00:07:55.905Z,9.67
2018-11-13T00:10:24.677Z,9.62
2018-11-13T00:12:53.437Z,9.71
2018-11-13T00:15:22.874Z,9.71
2018-11-13T00:17:51.719Z,9.61
2018-11-13T00:20:20.569Z,9.57
2018-11-13T00:22:49.140Z,9.57
2018-11-13T00:25:18.755Z,9.54
2018-11-13T00:27:47.333Z,9.39
2018-11-13T00:30:20.533Z,9.31
2018-11-13T00:32:49.348Z,9.32
2018-11-13T00:35:19.010Z,9.23
2018-11-13T00:37:48.312Z,9.05
2018-11-13T00:40:18.535Z,8.90
2018-11-13T00:42:47.805Z,8.76
2018-11-13T00:45:16.551Z,8.69
2018-11-13T00:47:45.637Z,8.72
2018-11-13T00:50:18.116Z,8.74
2018-11-13T00:52:47.164Z,8.83
2018-11-13T00:55:16.058Z,9.03
2018-11-13T00:57:44.690Z,9.20
2018-11-13T01:00:16.142Z,9.44
2018-11-13T01:02:45.254Z,9.79
2018-11-13T01:05:15.957Z,9.78
2018-11-13T01:07:45.904Z,9.90
2018-11-13T01:10:15.870Z,10.01
2018-11-13T01:12:45.508Z,10.16
2018-11-13T01:15:17.609Z,10.33
2018-11-13T01:17:48.813Z,10.46
2018-11-13T01:20:18.056Z,10.55
2018-11-13T01:22:46.785Z,10.59
2018-11-13T01:25:16.234Z,10.61
2018-11-13T01:27:45.352Z,10.60
2018-11-13T01:30:14.737Z,10.52
2018-11-13T01:32:44.061Z,10.57
2018-11-13T01:35:14.013Z,10.66
2018-11-13T01:37:42.616Z,10.71
2018-11-13T01:40:13.225Z,10.83
2018-11-13T01:42:42.529Z,10.85
2018-11-13T01:45:12.275Z,10.90
2018-11-13T01:47:40.889Z,10.87
2018-11-13T01:50:10.113Z,10.82
2018-11-13T01:52:38.765Z,10.78
2018-11-13T01:55:09.003Z,10.75
2018-11-13T01:57:37.836Z,10.77
2018-11-13T02:00:14.450Z,10.62
2018-11-13T02:02:43.268Z,10.54
2018-11-13T02:05:11.803Z,10.54
2018-11-13T02:07:40.595Z,10.48
2018-11-13T02:10:09.527Z,10.64
2018-11-13T02:12:38.154Z,10.66
2018-11-13T02:15:07.293Z,10.71
2018-11-13T02:17:35.975Z,10.78
2018-11-13T02:20:05.662Z,10.77
2018-11-13T02:22:34.616Z,10.77
2018-11-13T02:25:03.372Z,10.86
2018-11-13T02:27:32.037Z,10.92
2018-11-13T02:30:00.598Z,10.95
2018-11-13T02:32:29.241Z,11.03
2018-11-13T02:34:57.877Z,11.17
2018-11-13T02:37:26.598Z,11.19
2018-11-13T02:39:55.161Z,11.17
2018-11-13T02:42:23.739Z,11.24
2018-11-13T02:44:52.390Z,11.30
2018-11-13T02:47:21.374Z,11.29
2018-11-13T02:49:51.312Z,11.17
2018-11-13T02:52:19.913Z,11.27
2018-11-13T02:54:48.728Z,11.19
2018-11-13T02:57:17.765Z,11.24
2018-11-13T02:59:46.361Z,11.24
2018-11-13T03:02:15.311Z,11.16
2018-11-13T03:04:43.923Z,11.02
2018-11-13T03:07:12.508Z,10.93
2018-11-13T03:09:41.070Z,10.89
2018-11-13T03:12:09.597Z,10.80
2018-11-13T03:14:38.194Z,10.87
2018-11-13T03:17:06.862Z,10.82
2018-11-13T03:19:35.466Z,10.73
2018-11-13T03:22:04.022Z,10.68
2018-11-13T03:24:32.669Z,10.73
2018-11-13T03:27:01.182Z,10.63
2018-11-13T03:29:30.343Z,10.54
2018-11-13T03:32:05.827Z,10.50
2018-11-13T03:34:34.409Z,10.76
2018-11-13T03:37:02.969Z,10.88
2018-11-13T03:39:31.674Z,10.82
2018-11-13T03:42:00.615Z,10.73
2018-11-13T03:44:29.609Z,10.60
2018-11-13T03:46:58.918Z,10.52
2018-11-13T03:49:27.500Z,10.44
2018-11-13T03:51:56.034Z,10.45
2018-11-13T03:54:24.769Z,10.45
2018-11-13T03:56:53.550Z,10.51
2018-11-13T03:59:22.178Z,10.49
2018-11-13T04:01:50.887Z,10.43
2018-11-13T04:04:19.515Z,10.33
2018-11-13T04:06:48.076Z,10.36
2018-11-13T04:09:16.674Z,10.24
2018-11-13T04:11:45.260Z,10.17
2018-11-13T04:14:13.845Z,10.02
2018-11-13T04:16:42.455Z,9.92
2018-11-13T04:19:11.039Z,9.89
2018-11-13T04:21:39.849Z,9.79
2018-11-13T04:24:08.433Z,9.70
2018-11-13T04:26:37.006Z,9.56
2018-11-13T04:29:06.005Z,9.44
2018-11-13T04:31:34.710Z,9.33
2018-11-13T04:34:03.291Z,9.26
2018-11-13T04:36:31.958Z,9.30
2018-11-13T04:39:00.533Z,9.24
2018-11-13T04:41:29.184Z,9.13
2018-11-13T04:43:57.909Z,9.01
2018-11-13T04:46:26.486Z,8.95
2018-11-13T04:48:59.127Z,8.87
2018-11-13T04:51:27.701Z,8.79
2018-11-13T04:53:56.432Z,8.72
2018-11-13T04:56:25.167Z,8.71
2018-11-13T04:58:53.872Z,8.83
2018-11-13T05:01:22.431Z,9.12
2018-11-13T05:03:51.001Z,9.11
2018-11-13T05:06:19.599Z,9.01
2018-11-13T05:08:48.149Z,8.94
2018-11-13T05:11:16.689Z,8.90
2018-11-13T05:13:45.347Z,8.97
2018-11-13T05:16:13.982Z,8.99
2018-11-13T05:18:42.565Z,9.06
2018-11-13T05:21:11.178Z,9.12
2018-11-13T05:23:39.822Z,9.09
2018-11-13T05:26:08.436Z,9.13
2018-11-13T05:28:37.096Z,9.22
2018-11-13T05:31:07.434Z,9.22
2018-11-13T05:33:35.997Z,9.25
2018-11-13T05:36:04.567Z,9.30
2018-11-13T05:38:33.128Z,9.43
2018-11-13T05:41:01.719Z,9.56
2018-11-13T05:43:30.324Z,9.72
2018-11-13T05:45:59.106Z,9.89
2018-11-13T05:48:27.666Z,9.95
2018-11-13T05:50:56.513Z,10.02
2018-11-13T05:53:25.434Z,10.07
2018-11-13T05:55:53.946Z,9.94
2018-11-13T05:58:23.142Z,9.87
2018-11-13T06:00:51.733Z,9.88
2018-11-13T06:03:20.291Z,10.10
2018-11-13T06:05:48.986Z,10.25
2018-11-13T06:08:19.287Z,10.39
2018-11-13T06:10:48.273Z,10.51
2018-11-13T06:13:16.833Z,10.53
2018-11-13T06:15:45.393Z,10.52
2018-11-13T06:18:14.041Z,10.47
2018-11-13T06:20:42.963Z,10.41
2018-11-13T06:23:11.732Z,10.36
2018-11-13T06:25:40.532Z,10.47
2018-11-13T06:28:09.492Z,10.64
2018-11-13T06:30:38.297Z,10.69
2018-11-13T06:33:07.219Z,10.80
2018-11-13T06:35:35.846Z,10.83
2018-11-13T06:38:04.486Z,10.87
2018-11-13T06:40:33.038Z,10.90
2018-11-13T06:43:01.638Z,10.97
2018-11-13T06:45:30.265Z,11.05
2018-11-13T06:47:58.994Z,11.13
2018-11-13T06:50:27.825Z,11.24
2018-11-13T06:52:56.545Z,11.44
2018-11-13T06:55:29.027Z,11.60
2018-11-13T06:57:58.000Z,11.79
2018-11-13T07:00:26.749Z,11.96
2018-11-13T07:02:55.590Z,12.06
2018-11-13T07:05:24.273Z,12.10
2018-11-13T07:07:52.901Z,12.19
2018-11-13T07:10:22.858Z,12.21
2018-11-13T07:12:52.061Z,12.26
2018-11-13T07:15:23.003Z,12.30
2018-11-13T07:17:52.924Z,12.30
2018-11-13T07:20:22.685Z,12.36
2018-11-13T07:22:51.409Z,12.40
2018-11-13T07:25:20.260Z,12.47
2018-11-13T07:27:49.112Z,12.54
2018-11-13T07:30:18.900Z,12.59
2018-11-13T07:32:49.533Z,12.70
2018-11-13T07:35:19.084Z,12.92
2018-11-13T07:37:49.459Z,13.18
2018-11-13T07:40:18.181Z,13.48
2018-11-13T07:42:46.762Z,13.75
2018-11-13T07:45:16.018Z,13.93
2018-11-13T07:47:45.856Z,14.12
2018-11-13T07:50:14.885Z,14.29
2018-11-13T07:52:43.441Z,14.38
2018-11-13T07:55:12.962Z,14.45
2018-11-13T07:57:41.550Z,14.54
2018-11-13T08:00:20.089Z,14.60
2018-11-13T08:02:50.929Z,14.71
2018-11-13T08:05:19.558Z,14.86
2018-11-13T08:07:48.217Z,14.98
2018-11-13T08:10:16.938Z,15.11
2018-11-13T08:12:45.628Z,15.24
2018-11-13T08:15:15.663Z,15.21
2018-11-13T08:17:44.290Z,15.25
2018-11-13T08:20:14.389Z,15.24
2018-11-13T08:22:43.602Z,15.37
2018-11-13T08:25:12.620Z,15.51
2018-11-13T08:27:41.925Z,15.70
2018-11-13T08:30:13.305Z,15.77
2018-11-13T08:32:42.228Z,15.86
2018-11-13T08:35:10.803Z,15.89
2018-11-13T08:37:39.625Z,15.97
2018-11-13T08:40:11.045Z,16.01
2018-11-13T08:42:39.645Z,16.11
2018-11-13T08:45:08.962Z,16.27
2018-11-13T08:47:37.623Z,16.34
2018-11-13T08:50:06.720Z,16.42
2018-11-13T08:52:35.454Z,16.47
2018-11-13T08:55:04.573Z,16.46
2018-11-13T08:57:33.541Z,16.49
2018-11-13T09:00:02.364Z,16.50
2018-11-13T09:02:30.880Z,16.61
2018-11-13T09:04:59.553Z,16.66
2018-11-13T09:07:28.315Z,16.75
2018-11-13T09:09:56.843Z,16.84
2018-11-13T09:12:25.521Z,16.93
2018-11-13T09:14:54.277Z,16.91
2018-11-13T09:17:22.822Z,16.85
2018-11-13T09:19:51.338Z,16.79
2018-11-13T09:22:19.931Z,16.75
2018-11-13T09:24:48.626Z,16.69
2018-11-13T09:27:17.178Z,16.66
2018-11-13T09:29:45.839Z,16.73
2018-11-13T09:32:14.538Z,16.71
2018-11-13T09:34:45.099Z,16.70
2018-11-13T09:37:13.885Z,16.75
2018-11-13T09:39:42.749Z,16.85
2018-11-13T09:42:11.391Z,16.95
2018-11-13T09:44:40.074Z,17.08
2018-11-13T09:47:08.823Z,17.18
2018-11-13T09:49:37.463Z,17.29
2018-11-13T09:52:06.553Z,17.41
2018-11-13T09:54:35.103Z,17.51
2018-11-13T09:57:03.631Z,17.66
2018-11-13T09:59:32.400Z,17.69
2018-11-13T10:02:01.559Z,17.66
2018-11-13T10:04:30.490Z,17.71
2018-11-13T10:06:59.277Z,17.78
2018-11-13T10:09:28.101Z,17.91
2018-11-13T10:11:56.653Z,18.04
2018-11-13T10:14:25.249Z,18.15
2018-11-13T10:16:53.794Z,18.24
2018-11-13T10:19:22.358Z,18.36
2018-11-13T10:21:51.010Z,18.41
2018-11-13T10:24:19.606Z,18.45
2018-11-13T10:26:48.388Z,18.49
2018-11-13T10:29:16.992Z,18.43
2018-11-13T10:31:45.533Z,18.34
2018-11-13T10:34:14.078Z,18.34
2018-11-13T10:36:42.959Z,18.38
2018-11-13T10:39:12.238Z,18.43
2018-11-13T10:41:40.836Z,18.51
2018-11-13T10:44:09.487Z,18.64
2018-11-13T10:46:39.124Z,18.66
2018-11-13T10:49:07.911Z,18.70
2018-11-13T10:51:36.685Z,18.70
2018-11-13T10:54:07.315Z,18.77
2018-11-13T10:56:35.948Z,18.80
2018-11-13T10:59:04.624Z,18.86
2018-11-13T11:01:38.470Z,18.92
2018-11-13T11:04:12.392Z,19.02
2018-11-13T11:06:40.975Z,19.05
2018-11-13T11:09:10.337Z,18.99
2018-11-13T11:11:40.901Z,18.95
2018-11-13T11:14:11.538Z,18.99
2018-11-13T11:16:40.067Z,18.95
2018-11-13T11:19:08.752Z,18.98
2018-11-13T11:21:37.609Z,19.03
2018-11-13T11:24:06.311Z,19.12
2018-11-13T11:26:35.462Z,19.15
2018-11-13T11:29:04.077Z,19.18
2018-11-13T11:31:32.643Z,19.18
2018-11-13T11:34:01.236Z,19.18
2018-11-13T11:36:29.810Z,19.12
2018-11-13T11:38:58.743Z,19.09
2018-11-13T11:41:27.327Z,19.06
2018-11-13T11:43:55.871Z,19.06
2018-11-13T11:46:24.450Z,19.03
2018-11-13T11:48:53.078Z,18.96
2018-11-13T11:51:21.644Z,18.88
2018-11-13T11:53:50.231Z,18.86
2018-11-13T11:56:18.971Z,18.81
2018-11-13T11:58:47.509Z,18.83
2018-11-13T12:01:16.103Z,18.83
2018-11-13T12:03:44.673Z,18.91
2018-11-13T12:06:13.377Z,18.94
2018-11-13T12:08:41.941Z,18.98
2018-11-13T12:11:10.520Z,18.98
2018-11-13T12:13:39.161Z,18.85
2018-11-13T12:16:07.733Z,18.74
2018-11-13T12:18:36.326Z,18.64
2018-11-13T12:21:04.989Z,18.56
2018-11-13T12:23:33.561Z,18.46
2018-11-13T12:26:02.152Z,18.27
2018-11-13T12:28:30.746Z,18.17
2018-11-13T12:30:59.628Z,18.08
2018-11-13T12:33:28.183Z,18.04
2018-11-13T12:35:56.764Z,18.03
2018-11-13T12:38:25.396Z,18.02
2018-11-13T12:40:54.131Z,17.92
2018-11-13T12:43:22.955Z,17.85
2018-11-13T12:45:51.482Z,17.81
2018-11-13T12:48:20.160Z,17.79
2018-11-13T12:50:53.978Z,17.78
2018-11-13T12:53:22.562Z,17.70
2018-11-13T12:55:51.180Z,17.66
2018-11-13T12:58:19.869Z,17.63
2018-11-13T13:00:48.485Z,17.62
2018-11-13T13:03:17.050Z,17.60
2018-11-13T13:05:45.637Z,17.55
2018-11-13T13:08:14.250Z,17.44
2018-11-13T13:10:42.766Z,17.27
2018-11-13T13:13:11.314Z,17.20
2018-11-13T13:15:40.024Z,17.11
2018-11-13T13:18:08.577Z,17.03
2018-11-13T13:20:37.150Z,17.01
2018-11-13T13:23:06.130Z,16.98
2018-11-13T13:25:34.683Z,16.92
2018-11-13T13:28:03.312Z,16.88
2018-11-13T13:30:31.933Z,16.77
2018-11-13T13:33:00.481Z,16.65
2018-11-13T13:35:39.317Z,16.52
2018-11-13T13:38:08.782Z,16.39
2018-11-13T13:40:38.301Z,16.29
2018-11-13T13:43:07.402Z,16.19
2018-11-13T13:45:36.024Z,16.07
2018-11-13T13:48:04.766Z,15.97
2018-11-13T13:50:33.354Z,15.89
2018-11-13T13:53:01.905Z,15.82
2018-11-13T13:55:30.542Z,15.75
2018-11-13T13:57:59.862Z,15.65
2018-11-13T14:00:30.098Z,15.57
2018-11-13T14:02:58.897Z,15.55
2018-11-13T14:05:27.675Z,15.54
2018-11-13T14:07:56.364Z,15.45
2018-11-13T14:10:24.905Z,15.40
2018-11-13T14:12:53.690Z,15.28
2018-11-13T14:15:22.254Z,15.21
2018-11-13T14:17:51.827Z,15.16
2018-11-13T14:20:21.239Z,15.13
2018-11-13T14:22:50.437Z,15.12
2018-11-13T14:25:19.414Z,15.06
2018-11-13T14:27:48.558Z,14.94
2018-11-13T14:30:20.794Z,14.86
2018-11-13T14:32:50.209Z,14.79
2018-11-13T14:35:19.177Z,14.70
2018-11-13T14:37:48.322Z,14.59
2018-11-13T14:40:21.561Z,14.51
2018-11-13T14:42:50.428Z,14.47
2018-11-13T14:45:20.446Z,14.37
2018-11-13T14:47:49.804Z,14.28
2018-11-13T14:50:19.621Z,14.21
2018-11-13T14:52:48.806Z,14.12
2018-11-13T14:55:19.959Z,13.97
2018-11-13T14:57:48.842Z,13.84
2018-11-13T15:00:20.095Z,13.77
2018-11-13T15:02:49.800Z,13.70
2018-11-13T15:05:19.630Z,13.58
2018-11-13T15:07:49.481Z,13.50
2018-11-13T15:10:20.920Z,13.46
2018-11-13T15:12:49.463Z,13.43
2018-11-13T15:15:18.138Z,13.41
2018-11-13T15:17:46.837Z,13.41
2018-11-13T15:20:16.450Z,13.38
2018-11-13T15:22:45.584Z,13.33
2018-11-13T15:25:15.350Z,13.29
2018-11-13T15:27:44.867Z,13.29
2018-11-13T15:30:19.419Z,13.28
2018-11-13T15:32:51.662Z,13.26
2018-11-13T15:35:20.284Z,13.17
2018-11-13T15:37:48.823Z,13.07
2018-11-13T16:06:10.175Z,12.70
2018-11-13T16:25:58.661Z,12.44
2018-11-13T16:28:27.457Z,12.41
2018-11-13T16:30:56.341Z,12.36
2018-11-13T16:33:24.955Z,12.38
2018-11-13T16:35:53.569Z,12.35
2018-11-13T16:38:22.660Z,12.36
2018-11-13T16:40:51.253Z,12.37
2018-11-13T16:43:19.931Z,12.35
2018-11-13T16:45:48.662Z,12.38
2018-11-13T16:48:17.292Z,12.37
2018-11-13T16:50:46.198Z,12.32
2018-11-13T16:53:14.822Z,12.28
2018-11-13T16:55:48.808Z,12.23
2018-11-13T16:58:17.569Z,12.18
2018-11-13T17:00:46.650Z,12.16
2018-11-13T17:03:15.291Z,12.17
2018-11-13T17:05:43.879Z,12.14
2018-11-13T17:08:12.606Z,12.09
2018-11-13T17:10:42.395Z,12.08
2018-11-13T17:13:11.166Z,12.09
2018-11-13T17:15:39.858Z,12.08
2018-11-13T17:18:08.569Z,12.09
2018-11-13T17:20:37.148Z,12.03
2018-11-13T17:23:06.093Z,12.03
2018-11-13T17:25:36.075Z,12.01
2018-11-13T17:28:04.758Z,11.98
2018-11-13T17:30:34.518Z,11.98
2018-11-13T17:33:04.717Z,11.95
2018-11-13T17:35:33.630Z,11.91
2018-11-13T17:38:02.710Z,11.87
2018-11-13T17:40:33.042Z,11.87
2018-11-13T17:43:02.967Z,11.86
2018-11-13T17:45:32.830Z,11.86
2018-11-13T17:48:01.419Z,11.85
2018-11-13T17:50:33.088Z,11.83
2018-11-13T17:53:01.779Z,11.81
2018-11-13T17:55:30.403Z,11.76
2018-11-13T17:58:00.423Z,11.72
2018-11-13T18:00:32.377Z,11.71
2018-11-13T18:03:01.643Z,11.69
2018-11-13T18:05:30.681Z,11.66
2018-11-13T18:08:00.954Z,11.63
2018-11-13T18:10:30.381Z,11.53
2018-11-13T18:12:58.977Z,11.52
2018-11-13T18:15:28.570Z,11.51
2018-11-13T18:17:57.186Z,11.49
2018-11-13T18:20:27.926Z,11.48
2018-11-13T18:22:56.522Z,11.48
2018-11-13T18:25:25.414Z,11.44
2018-11-13T18:27:55.537Z,11.44
2018-11-13T18:30:25.649Z,11.43
2018-11-13T18:32:54.506Z,11.35
2018-11-13T18:35:24.398Z,11.31
2018-11-13T18:37:54.154Z,11.24
2018-11-13T18:40:23.403Z,11.13
2018-11-13T18:42:52.725Z,11.13
2018-11-13T18:45:24.951Z,11.10
2018-11-13T18:47:53.872Z,11.07
2018-11-13T18:50:27.081Z,10.96
2018-11-13T18:52:55.948Z,10.91
2018-11-13T18:55:24.844Z,10.87
2018-11-13T18:57:53.595Z,10.82
2018-11-13T19:00:27.270Z,10.75
2018-11-13T19:02:56.542Z,10.71
2018-11-13T19:05:26.425Z,10.62
2018-11-13T19:07:55.073Z,10.60
2018-11-13T19:10:33.198Z,10.57
2018-11-13T19:13:03.415Z,10.50
2018-11-13T19:15:34.193Z,10.41
2018-11-13T19:18:03.484Z,10.35
2018-11-13T19:20:33.236Z,10.22
2018-11-13T19:23:02.633Z,10.19
2018-11-13T19:25:33.662Z,10.14
2018-11-13T19:28:03.733Z,10.08
2018-11-13T19:30:32.995Z,10.06
2018-11-13T19:33:02.860Z,10.03
2018-11-13T19:35:33.546Z,9.98
2018-11-13T19:38:03.886Z,9.94
2018-11-13T19:40:35.111Z,9.90
2018-11-13T19:43:07.315Z,9.84
2018-11-13T19:45:37.912Z,9.75
2018-11-13T19:48:08.406Z,9.71
2018-11-13T19:50:38.902Z,9.70
2018-11-13T19:53:09.174Z,9.65
2018-11-13T19:55:39.799Z,9.63
2018-11-13T19:58:10.217Z,9.61
2018-11-13T20:00:40.889Z,9.63
2018-11-13T20:03:12.442Z,9.64
2018-11-13T20:05:42.322Z,9.76
2018-11-13T20:08:12.382Z,9.89
2018-11-13T20:10:42.584Z,10.01
2018-11-13T20:13:13.040Z,10.11
2018-11-13T20:15:42.812Z,10.16
2018-11-13T20:18:12.374Z,10.19
2018-11-13T20:20:42.141Z,10.20
2018-11-13T20:23:12.031Z,10.18
2018-11-13T20:25:41.551Z,10.18
2018-11-13T20:28:10.905Z,10.16
2018-11-13T20:30:41.188Z,10.14
2018-11-13T20:33:10.662Z,10.10
2018-11-13T20:35:39.692Z,10.05
2018-11-13T20:38:08.672Z,10.02
2018-11-13T20:40:37.995Z,10.01
2018-11-13T20:43:08.809Z,9.98
2018-11-13T20:45:37.493Z,10.00
2018-11-13T20:48:06.532Z,10.00
2018-11-13T20:50:35.561Z,9.99
2018-11-13T20:53:04.157Z,9.94
2018-11-13T20:55:32.726Z,9.93
2018-11-13T20:58:01.385Z,9.92
2018-11-13T21:00:31.239Z,9.89
2018-11-13T21:03:00.059Z,9.90
2018-11-13T21:05:28.684Z,9.90
2018-11-13T21:07:57.333Z,9.91
2018-11-13T21:10:31.778Z,9.85
2018-11-13T21:13:01.878Z,9.79
2018-11-13T21:15:30.453Z,9.75
2018-11-13T21:17:59.050Z,9.74
2018-11-13T21:20:27.771Z,9.80
2018-11-13T21:22:56.596Z,9.91
2018-11-13T21:25:26.290Z,9.99
2018-11-13T21:27:57.318Z,9.97
2018-11-13T21:30:25.932Z,9.88
2018-11-13T21:32:54.890Z,9.78
2018-11-13T21:35:23.448Z,9.70
2018-11-13T21:37:55.282Z,9.62
2018-11-13T21:40:25.046Z,9.57
2018-11-13T21:42:54.286Z,9.52
2018-11-13T21:45:23.909Z,9.49
2018-11-13T21:47:52.533Z,9.51
2018-11-13T21:50:22.461Z,9.58
2018-11-13T21:52:51.030Z,9.67
2018-11-13T21:55:20.681Z,9.73
2018-11-13T21:57:49.734Z,9.79
2018-11-13T22:00:20.632Z,9.83
2018-11-13T22:02:53.233Z,9.87
2018-11-13T22:05:22.593Z,9.89
2018-11-13T22:07:51.129Z,9.86
2018-11-13T22:10:19.653Z,9.87
2018-11-13T22:12:48.254Z,9.87
2018-11-13T22:15:19.116Z,9.87
2018-11-13T22:17:47.657Z,9.88
2018-11-13T22:20:17.210Z,9.88
2018-11-13T22:22:45.931Z,9.88
2018-11-13T22:25:16.724Z,9.92
2018-11-13T22:27:46.641Z,9.90
2018-11-13T22:30:17.511Z,9.90
2018-11-13T22:32:46.590Z,9.92
2018-11-13T22:35:15.722Z,9.89
2018-11-13T22:37:44.400Z,9.82
2018-11-13T22:40:15.110Z,9.68
2018-11-13T22:42:43.733Z,9.60
2018-11-13T22:45:14.359Z,9.50
2018-11-13T22:47:43.221Z,9.29
2018-11-13T22:50:15.773Z,9.23
2018-11-13T22:52:44.793Z,9.12
2018-11-13T22:55:14.307Z,9.00
2018-11-13T22:57:43.923Z,8.86
2018-11-13T23:00:18.314Z,8.74
2018-11-13T23:02:54.208Z,8.73
2018-11-13T23:05:22.754Z,8.64
2018-11-13T23:07:51.265Z,8.60
2018-11-13T23:10:19.854Z,8.59
2018-11-13T23:12:48.447Z,8.54
2018-11-13T23:15:19.364Z,8.54
2018-11-13T23:17:47.978Z,8.54
2018-11-13T23:20:17.914Z,8.57
2018-11-13T23:22:46.438Z,8.57
2018-11-13T23:25:16.144Z,8.57
2018-11-13T23:27:45.652Z,8.58
2018-11-13T23:30:17.667Z,8.58
2018-11-13T23:32:46.625Z,8.60
2018-11-13T23:35:15.712Z,8.61
2018-11-13T23:37:45.347Z,8.59
2018-11-13T23:40:15.325Z,8.51
2018-11-13T23:42:48.747Z,8.48
2018-11-13T23:45:18.266Z,8.41
2018-11-13T23:47:47.213Z,8.32
2018-11-13T23:50:15.850Z,8.33
2018-11-13T23:52:45.011Z,8.33
2018-11-13T23:55:14.227Z,8.30
2018-11-13T23:57:43.336Z,8.23
